Anna, Ohio
Current Conditions -  °F | °C
As of 4:34 AM on Wednesday 22 Oct 2014 (Local Time) from KAXV Reporting Station
Overcast Overcast  
Wind Chill: 38°   Ceiling: 2800
Heat Index: 43°   Visibility: 10mi
Dew Point: 39°   Wind: 8mph
Humidity: 87%   Direction: 360°N
Pressure: 30.23"   Gusts: NA
Location:  40.39°N, 84.17°W
Report Text: KAXV 220834Z AUTO 36007KT 10SM OVC028 06/04 A3023 RMK AO2
Loading
Personal Weather Stations






























Interactive Weather Map New forecast layout! Learn more

10-Day Weather Forecast

Advertisements
Track Severe Weather on mobile